Time;durP1;ratioP1;P1;durP2;ratioP2;P2;SDS_P1;SDS_P2;PMS_P1;PMS_P2;Temp;Humidity;BMP_temperature;BMP_pressure;BME280_temperature;BME280_humidity;BME280_pressure;Samples;Min_cycle;Max_cycle;Signal;HPM_P1;HPM_P2
2023/04/12 00:01:29;;;;;;;79.47;70.93;;;;;;;;;;5070441;28;20047;-60
2023/04/12 00:03:55;;;;;;;98.47;83.40;;;;;;;;;;5070944;28;20079;-60
2023/04/12 00:06:26;;;;;;;109.45;88.00;;;;;;;;;;5070281;28;20536;-60
2023/04/12 00:08:51;;;;;;;94.53;79.20;;;;;;;;;;5071021;28;20100;-60
2023/04/12 00:11:17;;;;;;;79.45;70.88;;;;;;;;;;5070827;28;20112;-60
2023/04/12 00:13:42;;;;;;;68.30;61.35;;;;;;;;;;5070597;28;20462;-61
2023/04/12 00:16:08;;;;;;;114.25;85.20;;;;;;;;;;5070650;28;20044;-60
2023/04/12 00:18:33;;;;;;;98.43;79.55;;;;;;;;;;5069996;28;20024;-59
2023/04/12 00:20:58;;;;;;;109.70;81.78;;;;;;;;;;5070533;28;20591;-60
2023/04/12 00:23:24;;;;;;;99.25;79.55;;;;;;;;;;5070620;28;20044;-58
2023/04/12 00:25:49;;;;;;;117.70;83.60;;;;;;;;;;5070881;28;20469;-60
2023/04/12 00:28:15;;;;;;;142.98;91.13;;;;;;;;;;5070725;28;20033;-59
2023/04/12 00:30:40;;;;;;;98.10;79.18;;;;;;;;;;5068247;28;20411;-60
2023/04/12 00:33:06;;;;;;;129.35;86.30;;;;;;;;;;5070174;28;20453;-60
2023/04/12 00:35:31;;;;;;;115.38;83.05;;;;;;;;;;5070504;28;20032;-60
2023/04/12 00:37:56;;;;;;;112.28;81.82;;;;;;;;;;5070174;28;20039;-59
2023/04/12 00:40:22;;;;;;;130.98;87.60;;;;;;;;;;5070085;28;20032;-59
2023/04/12 00:42:47;;;;;;;141.00;91.05;;;;;;;;;;5070316;28;20393;-60
2023/04/12 00:45:13;;;;;;;131.32;88.43;;;;;;;;;;5068347;28;20515;-60
2023/04/12 00:47:41;;;;;;;122.13;84.50;;;;;;;;;;5067499;28;20029;-59
2023/04/12 00:50:08;;;;;;;80.65;66.47;;;;;;;;;;5069798;28;20055;-60
2023/04/12 00:52:33;;;;;;;100.47;75.65;;;;;;;;;;5069807;28;20025;-60
2023/04/12 00:55:00;;;;;;;115.40;80.97;;;;;;;;;;5069706;28;20036;-59
2023/04/12 00:57:26;;;;;;;178.57;99.40;;;;;;;;;;5069588;28;20032;-59
2023/04/12 00:59:52;;;;;;;140.27;88.47;;;;;;;;;;5069449;28;20100;-59
2023/04/12 01:02:17;;;;;;;118.13;83.25;;;;;;;;;;5069012;28;20548;-61
2023/04/12 01:04:42;;;;;;;150.65;91.53;;;;;;;;;;5069208;28;20031;-60
2023/04/12 01:07:28;;;;;;;155.18;93.32;;;;;;;;;;5069314;28;20420;-58
2023/04/12 01:10:07;;;;;;;193.02;99.63;;;;;;;;;;5068827;28;20032;-60
2023/04/12 01:12:58;;;;;;;182.85;100.18;;;;;;;;;;5069318;28;20016;-60
2023/04/12 01:15:25;;;;;;;159.38;93.82;;;;;;;;;;5026386;28;20041;-60
2023/04/12 01:17:55;;;;;;;165.50;95.68;;;;;;;;;;5026421;28;20037;-59
2023/04/12 01:20:22;;;;;;;196.20;103.50;;;;;;;;;;5026450;28;20040;-60
2023/04/12 01:22:51;;;;;;;151.57;89.68;;;;;;;;;;5026269;28;20113;-60
2023/04/12 01:25:37;;;;;;;208.82;104.28;;;;;;;;;;5026159;28;20036;-60
2023/04/12 01:28:03;;;;;;;179.57;95.70;;;;;;;;;;5026614;28;20029;-60
2023/04/12 01:30:30;;;;;;;184.60;98.93;;;;;;;;;;5026597;28;20032;-59
2023/04/12 01:32:55;;;;;;;169.13;94.72;;;;;;;;;;5026568;28;20029;-60
2023/04/12 01:35:25;;;;;;;119.80;82.00;;;;;;;;;;5026028;28;20021;-60
2023/04/12 01:37:50;;;;;;;153.85;87.75;;;;;;;;;;5009631;28;20041;-60
2023/04/12 01:40:16;;;;;;;170.82;93.07;;;;;;;;;;5026479;28;20029;-60
2023/04/12 01:42:42;;;;;;;187.65;98.93;;;;;;;;;;5026956;28;20113;-59
2023/04/12 01:45:07;;;;;;;223.82;103.13;;;;;;;;;;5025988;28;20144;-60
2023/04/12 01:47:33;;;;;;;207.30;98.85;;;;;;;;;;5026004;28;20033;-60
2023/04/12 01:50:02;;;;;;;128.93;82.00;;;;;;;;;;5026398;28;20370;-60
2023/04/12 01:52:30;;;;;;;196.35;99.45;;;;;;;;;;5052131;28;20033;-60
2023/04/12 01:54:56;;;;;;;185.45;96.78;;;;;;;;;;5069245;28;20058;-58
2023/04/12 01:57:22;;;;;;;153.75;88.70;;;;;;;;;;5068864;28;20017;-59
2023/04/12 01:59:49;;;;;;;141.15;87.47;;;;;;;;;;5068796;28;20032;-59
2023/04/12 02:02:15;;;;;;;156.40;91.25;;;;;;;;;;5068567;28;20044;-58
2023/04/12 02:04:41;;;;;;;168.80;94.10;;;;;;;;;;5068875;28;20051;-60
2023/04/12 02:07:06;;;;;;;169.30;94.22;;;;;;;;;;5068743;28;20035;-60
2023/04/12 02:09:38;;;;;;;126.60;84.63;;;;;;;;;;5068859;28;20659;-60
2023/04/12 02:12:04;;;;;;;90.90;71.30;;;;;;;;;;5068780;28;20025;-57
2023/04/12 02:14:30;;;;;;;91.40;73.45;;;;;;;;;;5068670;28;20143;-59
2023/04/12 02:16:56;;;;;;;76.93;68.53;;;;;;;;;;5068678;28;20024;-60
2023/04/12 02:19:22;;;;;;;67.72;60.78;;;;;;;;;;5068408;28;20021;-60
2023/04/12 02:21:47;;;;;;;60.15;54.63;;;;;;;;;;5068446;28;20377;-58
2023/04/12 02:24:13;;;;;;;81.25;68.72;;;;;;;;;;5068620;28;20509;-60
2023/04/12 02:26:39;;;;;;;107.75;80.80;;;;;;;;;;5068112;28;20033;-58
2023/04/12 02:29:07;;;;;;;105.90;77.75;;;;;;;;;;5067853;28;20028;-60
2023/04/12 02:31:34;;;;;;;151.40;92.18;;;;;;;;;;5067878;28;20016;-60
2023/04/12 02:34:00;;;;;;;95.35;74.93;;;;;;;;;;5067847;28;20036;-59
2023/04/12 02:36:25;;;;;;;106.82;79.82;;;;;;;;;;5066564;28;20036;-60
2023/04/12 02:38:50;;;;;;;117.80;79.57;;;;;;;;;;5067914;28;20032;-59
2023/04/12 02:41:16;;;;;;;120.85;82.00;;;;;;;;;;5068403;28;20109;-58
2023/04/12 02:43:41;;;;;;;113.20;77.82;;;;;;;;;;5071207;28;20053;-60
2023/04/12 02:46:07;;;;;;;110.05;77.88;;;;;;;;;;5071393;28;20078;-61
2023/04/12 02:48:32;;;;;;;139.13;86.80;;;;;;;;;;5068830;28;20037;-60
2023/04/12 02:50:57;;;;;;;117.65;78.70;;;;;;;;;;5071245;28;20024;-60
2023/04/12 02:53:23;;;;;;;80.38;66.10;;;;;;;;;;5070975;28;20449;-60
2023/04/12 02:55:48;;;;;;;75.70;64.00;;;;;;;;;;5068643;28;20046;-57
2023/04/12 02:58:13;;;;;;;86.90;68.15;;;;;;;;;;5071378;28;20013;-59
2023/04/12 03:00:38;;;;;;;93.45;73.15;;;;;;;;;;5071381;28;20024;-60
2023/04/12 03:03:04;;;;;;;62.58;55.85;;;;;;;;;;5071841;28;20457;-59
2023/04/12 03:05:29;;;;;;;86.05;68.53;;;;;;;;;;5069239;28;20052;-58
2023/04/12 03:07:55;;;;;;;64.88;58.28;;;;;;;;;;5070831;28;20163;-60
2023/04/12 03:10:20;;;;;;;49.65;45.15;;;;;;;;;;5071281;28;20032;-60
2023/04/12 03:12:45;;;;;;;53.58;48.50;;;;;;;;;;5071692;28;21138;-60
2023/04/12 03:15:11;;;;;;;68.22;60.97;;;;;;;;;;5071618;28;20027;-60
2023/04/12 03:17:36;;;;;;;53.03;48.25;;;;;;;;;;5071695;28;20033;-60
2023/04/12 03:20:08;;;;;;;48.42;44.28;;;;;;;;;;5071670;28;20051;-57
2023/04/12 03:22:35;;;;;;;59.55;53.67;;;;;;;;;;5069888;28;20052;-59
2023/04/12 03:25:01;;;;;;;30.95;28.55;;;;;;;;;;5069435;28;20461;-60
2023/04/12 03:27:26;;;;;;;10.10;5.07;;;;;;;;;;5071235;28;20074;-59
2023/04/12 03:29:52;;;;;;;8.38;4.05;;;;;;;;;;5071145;28;20412;-60
2023/04/12 03:32:17;;;;;;;12.27;7.13;;;;;;;;;;5071321;28;20104;-60
2023/04/12 03:34:44;;;;;;;13.20;11.82;;;;;;;;;;5070969;28;20066;-59
2023/04/12 03:37:09;;;;;;;27.77;25.25;;;;;;;;;;5069721;28;20020;-59
2023/04/12 03:39:35;;;;;;;31.63;28.27;;;;;;;;;;5071077;28;20047;-60
2023/04/12 03:42:00;;;;;;;29.58;26.83;;;;;;;;;;5070851;28;20461;-59
2023/04/12 03:44:25;;;;;;;23.42;21.13;;;;;;;;;;5070924;28;20064;-60
2023/04/12 03:46:51;;;;;;;36.25;33.15;;;;;;;;;;5070710;28;20028;-58
2023/04/12 03:49:16;;;;;;;36.38;33.30;;;;;;;;;;5071159;28;20022;-60
2023/04/12 03:51:42;;;;;;;16.60;14.48;;;;;;;;;;5070759;28;20463;-60
2023/04/12 03:54:14;;;;;;;29.25;26.15;;;;;;;;;;5069240;28;20028;-61
2023/04/12 03:56:39;;;;;;;36.08;32.45;;;;;;;;;;5070662;28;20028;-58
2023/04/12 03:59:06;;;;;;;9.70;6.20;;;;;;;;;;5070573;28;20039;-60
2023/04/12 04:01:32;;;;;;;22.33;20.02;;;;;;;;;;5070629;28;20131;-60
2023/04/12 04:03:57;;;;;;;30.58;27.48;;;;;;;;;;5070514;28;20108;-60
2023/04/12 04:06:23;;;;;;;18.67;17.08;;;;;;;;;;5070437;28;20024;-60
2023/04/12 04:08:48;;;;;;;30.58;27.60;;;;;;;;;;5067722;28;20036;-59
2023/04/12 04:11:13;;;;;;;11.68;10.38;;;;;;;;;;5070220;28;20118;-61
2023/04/12 04:13:39;;;;;;;7.70;5.88;;;;;;;;;;5070046;28;20021;-60
2023/04/12 04:16:05;;;;;;;8.20;5.07;;;;;;;;;;5070233;28;20032;-60
2023/04/12 04:18:30;;;;;;;23.92;21.25;;;;;;;;;;5069875;28;20012;-60
2023/04/12 04:20:56;;;;;;;14.98;6.00;;;;;;;;;;5070336;28;20116;-60
2023/04/12 04:23:22;;;;;;;51.80;23.45;;;;;;;;;;5069866;28;20484;-61
2023/04/12 04:25:47;;;;;;;9.38;6.22;;;;;;;;;;5068732;28;20663;-60
2023/04/12 04:28:14;;;;;;;13.15;6.05;;;;;;;;;;5069993;28;20017;-61
2023/04/12 04:30:40;;;;;;;28.90;11.15;;;;;;;;;;5070225;28;20017;-58
2023/04/12 04:33:06;;;;;;;43.83;24.27;;;;;;;;;;5070172;28;20086;-58
2023/04/12 04:35:31;;;;;;;132.55;59.22;;;;;;;;;;5069651;28;20090;-59
2023/04/12 04:37:56;;;;;;;198.20;92.00;;;;;;;;;;5068608;28;20024;-59
2023/04/12 04:40:23;;;;;;;196.98;70.88;;;;;;;;;;5069798;28;20012;-60
2023/04/12 04:42:53;;;;;;;37.17;16.00;;;;;;;;;;5067975;28;20017;-60
2023/04/12 04:45:25;;;;;;;139.57;67.60;;;;;;;;;;5068525;28;20095;-59
2023/04/12 04:47:52;;;;;;;94.57;38.33;;;;;;;;;;5069898;28;20021;-59
2023/04/12 04:50:17;;;;;;;31.00;16.88;;;;;;;;;;5069654;28;20019;-56
2023/04/12 04:52:43;;;;;;;12.55;7.82;;;;;;;;;;5069404;28;20033;-58
2023/04/12 04:55:09;;;;;;;77.72;69.30;;;;;;;;;;5069310;28;20032;-58
2023/04/12 04:57:35;;;;;;;71.90;64.20;;;;;;;;;;5069535;28;20115;-59
2023/04/12 05:00:00;;;;;;;62.17;56.20;;;;;;;;;;5069017;28;20023;-57
2023/04/12 05:02:26;;;;;;;85.75;76.63;;;;;;;;;;5069578;28;20046;-59
2023/04/12 05:04:51;;;;;;;95.95;85.63;;;;;;;;;;5068630;28;20043;-59
2023/04/12 05:07:16;;;;;;;71.40;64.90;;;;;;;;;;5069304;28;20025;-59
2023/04/12 05:09:41;;;;;;;79.85;72.70;;;;;;;;;;5069023;28;20047;-59
2023/04/12 05:12:07;;;;;;;43.67;40.05;;;;;;;;;;5069077;28;20035;-59
2023/04/12 05:14:32;;;;;;;58.72;53.70;;;;;;;;;;5068842;28;20109;-57
2023/04/12 05:16:57;;;;;;;51.42;47.22;;;;;;;;;;5068836;28;20118;-59
2023/04/12 05:19:23;;;;;;;52.88;48.08;;;;;;;;;;5069358;28;20040;-59
2023/04/12 05:21:48;;;;;;;93.90;85.10;;;;;;;;;;5069365;28;20036;-59
2023/04/12 05:24:13;;;;;;;44.85;40.92;;;;;;;;;;5066549;28;20377;-59
2023/04/12 05:26:38;;;;;;;97.15;89.15;;;;;;;;;;5069105;28;20021;-59
2023/04/12 05:29:05;;;;;;;96.15;88.28;;;;;;;;;;5069348;28;20029;-59
2023/04/12 05:31:31;;;;;;;22.75;19.15;;;;;;;;;;5069269;28;20016;-57
2023/04/12 05:33:56;;;;;;;29.13;26.13;;;;;;;;;;5069060;28;20648;-59
2023/04/12 05:36:21;;;;;;;26.77;23.60;;;;;;;;;;5067776;28;20032;-57
2023/04/12 05:38:47;;;;;;;42.83;39.53;;;;;;;;;;5068307;28;20021;-58
2023/04/12 05:41:12;;;;;;;49.85;45.33;;;;;;;;;;5067669;28;20385;-60
2023/04/12 05:43:37;;;;;;;14.45;10.60;;;;;;;;;;5064944;28;20045;-55
2023/04/12 05:46:06;;;;;;;50.28;46.38;;;;;;;;;;5068424;28;20013;-59
2023/04/12 05:48:32;;;;;;;63.65;59.20;;;;;;;;;;5068778;28;20048;-59
2023/04/12 05:50:57;;;;;;;46.88;42.47;;;;;;;;;;5051570;28;20481;-58
2023/04/12 05:53:22;;;;;;;33.92;31.10;;;;;;;;;;5062559;28;20726;-58
2023/04/12 05:55:47;;;;;;;51.50;47.17;;;;;;;;;;5067473;28;20032;-59
2023/04/12 05:58:13;;;;;;;23.17;15.27;;;;;;;;;;5067426;28;20348;-60
2023/04/12 06:00:40;;;;;;;16.95;15.13;;;;;;;;;;5068211;28;20354;-57
2023/04/12 06:03:06;;;;;;;23.75;18.92;;;;;;;;;;5068317;28;20020;-57
2023/04/12 06:05:32;;;;;;;22.63;9.73;;;;;;;;;;5068279;28;20025;-58
2023/04/12 06:07:58;;;;;;;10.70;5.63;;;;;;;;;;5062255;28;20216;-57
2023/04/12 06:10:23;;;;;;;17.00;15.20;;;;;;;;;;5053148;28;20052;-58
2023/04/12 06:12:49;;;;;;;9.27;7.78;;;;;;;;;;5055853;28;20083;-58
2023/04/12 06:15:14;;;;;;;78.40;28.77;;;;;;;;;;5058817;28;20029;-57
2023/04/12 06:17:40;;;;;;;20.42;18.38;;;;;;;;;;5066618;28;20034;-56
2023/04/12 06:20:08;;;;;;;52.38;47.55;;;;;;;;;;5052897;28;20082;-56
2023/04/12 06:22:33;;;;;;;82.17;75.63;;;;;;;;;;5044042;28;20037;-54
2023/04/12 06:24:59;;;;;;;36.70;30.08;;;;;;;;;;5054576;28;20270;-56
2023/04/12 06:27:25;;;;;;;34.22;30.85;;;;;;;;;;5055177;28;20075;-56
2023/04/12 06:29:51;;;;;;;27.00;6.65;;;;;;;;;;5059149;28;20099;-59
2023/04/12 06:32:16;;;;;;;46.50;42.78;;;;;;;;;;5064462;28;20123;-55
2023/04/12 06:34:41;;;;;;;23.15;18.05;;;;;;;;;;5070112;28;20042;-58
2023/04/12 06:37:07;;;;;;;27.40;25.00;;;;;;;;;;5067108;28;20040;-57
2023/04/12 06:39:32;;;;;;;22.73;20.70;;;;;;;;;;5065424;28;20016;-54
2023/04/12 06:41:58;;;;;;;20.15;18.48;;;;;;;;;;5065469;28;20047;-57
2023/04/12 06:44:25;;;;;;;15.82;11.07;;;;;;;;;;5065854;28;20056;-59
2023/04/12 06:46:50;;;;;;;36.20;32.53;;;;;;;;;;5056133;28;20034;-56
2023/04/12 06:49:15;;;;;;;18.38;16.95;;;;;;;;;;5051692;28;20104;-58
2023/04/12 06:51:41;;;;;;;63.30;58.77;;;;;;;;;;5069111;28;20039;-59
2023/04/12 06:54:06;;;;;;;28.45;25.80;;;;;;;;;;5055722;28;20682;-55
2023/04/12 06:56:31;;;;;;;32.53;29.57;;;;;;;;;;5065448;28;20021;-61
2023/04/12 06:58:57;;;;;;;45.78;42.28;;;;;;;;;;5055372;28;20951;-60
2023/04/12 07:01:23;;;;;;;25.38;23.42;;;;;;;;;;5054294;28;20024;-59
2023/04/12 07:03:48;;;;;;;24.75;22.80;;;;;;;;;;5055833;28;20401;-59
2023/04/12 07:06:13;;;;;;;23.25;21.23;;;;;;;;;;5055040;28;20036;-59
2023/04/12 07:08:39;;;;;;;40.72;37.00;;;;;;;;;;5052153;28;20492;-58
2023/04/12 07:11:04;;;;;;;8.13;6.60;;;;;;;;;;5051089;28;20039;-56
2023/04/12 07:13:30;;;;;;;14.50;10.25;;;;;;;;;;5074770;28;20388;-56
2023/04/12 07:15:55;;;;;;;15.30;13.88;;;;;;;;;;5084614;28;20038;-55
2023/04/12 07:18:20;;;;;;;7.35;4.18;;;;;;;;;;5063501;28;20116;-59
2023/04/12 07:20:47;;;;;;;9.80;4.13;;;;;;;;;;5051900;28;20025;-61
2023/04/12 07:23:12;;;;;;;22.90;11.93;;;;;;;;;;5063193;28;20113;-53
2023/04/12 07:25:38;;;;;;;9.60;5.60;;;;;;;;;;5056888;28;20112;-64
2023/04/12 07:28:03;;;;;;;10.93;5.80;;;;;;;;;;5054391;28;20382;-64
2023/04/12 07:30:29;;;;;;;18.35;14.80;;;;;;;;;;5055815;28;20303;-66
2023/04/12 07:32:54;;;;;;;18.15;15.60;;;;;;;;;;5049731;28;20033;-63
2023/04/12 07:35:20;;;;;;;19.58;8.68;;;;;;;;;;5058805;28;20770;-60
2023/04/12 07:37:46;;;;;;;16.67;15.07;;;;;;;;;;5058844;28;20035;-61
2023/04/12 07:40:11;;;;;;;15.95;13.35;;;;;;;;;;5050753;28;20033;-62
2023/04/12 07:42:36;;;;;;;21.87;19.53;;;;;;;;;;5051333;28;20112;-59
2023/04/12 07:45:02;;;;;;;10.23;4.37;;;;;;;;;;5058537;28;20336;-61
2023/04/12 07:47:27;;;;;;;23.42;21.65;;;;;;;;;;5050377;28;20313;-61
2023/04/12 07:49:52;;;;;;;9.03;3.63;;;;;;;;;;5082128;28;20019;-57
2023/04/12 07:52:18;;;;;;;16.20;6.10;;;;;;;;;;5059485;28;20262;-60
2023/04/12 07:54:43;;;;;;;10.13;3.42;;;;;;;;;;5048884;28;20024;-60
2023/04/12 07:57:08;;;;;;;11.97;4.63;;;;;;;;;;5057131;28;20047;-59
2023/04/12 07:59:34;;;;;;;12.90;4.10;;;;;;;;;;5053996;28;21063;-60
2023/04/12 08:01:59;;;;;;;12.68;4.30;;;;;;;;;;5053569;28;20048;-60
2023/04/12 08:04:27;;;;;;;7.70;4.28;;;;;;;;;;5060812;28;20036;-64
2023/04/12 08:06:52;;;;;;;10.18;3.92;;;;;;;;;;5056007;28;20031;-63
2023/04/12 08:09:17;;;;;;;14.10;4.05;;;;;;;;;;5053968;28;20822;-63
2023/04/12 08:11:43;;;;;;;11.38;7.32;;;;;;;;;;5059345;28;20052;-62
2023/04/12 08:14:09;;;;;;;7.05;4.25;;;;;;;;;;5073763;28;20560;-62
2023/04/12 08:16:34;;;;;;;20.30;12.93;;;;;;;;;;5046476;28;20032;-61
2023/04/12 08:19:00;;;;;;;19.55;14.07;;;;;;;;;;5061914;28;20110;-60
2023/04/12 08:21:26;;;;;;;9.45;4.68;;;;;;;;;;5065929;28;20051;-62
2023/04/12 08:23:51;;;;;;;5.40;2.92;;;;;;;;;;5059280;28;20048;-63
2023/04/12 08:26:17;;;;;;;11.30;4.85;;;;;;;;;;5056072;28;20064;-64
2023/04/12 08:28:42;;;;;;;10.83;5.27;;;;;;;;;;5054207;28;20025;-63
2023/04/12 08:31:07;;;;;;;29.07;26.37;;;;;;;;;;5053992;28;20699;-60
2023/04/12 08:33:33;;;;;;;24.58;22.45;;;;;;;;;;5054461;28;20261;-63
2023/04/12 08:35:58;;;;;;;28.38;25.73;;;;;;;;;;5052081;28;20035;-61
2023/04/12 08:38:24;;;;;;;15.73;12.43;;;;;;;;;;5056248;28;20019;-62
2023/04/12 08:40:50;;;;;;;49.97;39.75;;;;;;;;;;5058304;28;20031;-61
2023/04/12 08:43:16;;;;;;;10.05;3.92;;;;;;;;;;5058804;28;20028;-62
2023/04/12 08:45:41;;;;;;;7.32;3.72;;;;;;;;;;5067847;28;20396;-62
2023/04/12 08:48:07;;;;;;;6.53;3.30;;;;;;;;;;5063742;28;20120;-63
2023/04/12 08:50:32;;;;;;;36.50;10.52;;;;;;;;;;5048542;28;20036;-61
2023/04/12 08:52:58;;;;;;;375.40;319.13;;;;;;;;;;5059048;28;20325;-63
2023/04/12 08:55:24;;;;;;;709.97;644.80;;;;;;;;;;5065963;28;20281;-62
2023/04/12 08:57:50;;;;;;;715.92;653.92;;;;;;;;;;5061872;28;20382;-60
2023/04/12 09:00:16;;;;;;;185.68;173.73;;;;;;;;;;5065492;28;20222;-62
2023/04/12 09:02:47;;;;;;;626.97;579.40;;;;;;;;;;5064601;28;20020;-60
2023/04/12 09:05:13;;;;;;;399.63;373.60;;;;;;;;;;5065849;28;20027;-62
2023/04/12 09:07:38;;;;;;;89.97;84.05;;;;;;;;;;5066615;28;20119;-57
2023/04/12 09:10:04;;;;;;;258.83;242.52;;;;;;;;;;5065941;28;20485;-62
2023/04/12 09:12:30;;;;;;;224.70;210.05;;;;;;;;;;5066008;28;20039;-63
2023/04/12 09:15:09;;;;;;;126.03;117.88;;;;;;;;;;5046951;28;20036;-61
2023/04/12 09:17:37;;;;;;;635.67;586.57;;;;;;;;;;5048386;28;20029;-62
2023/04/12 09:20:22;;;;;;;726.33;650.53;;;;;;;;;;5061821;28;20869;-59
2023/04/12 09:22:47;;;;;;;688.00;567.88;;;;;;;;;;5058446;28;20106;-63
2023/04/12 09:25:13;;;;;;;763.42;621.40;;;;;;;;;;5059296;28;20097;-61
2023/04/12 09:27:45;;;;;;;914.55;662.35;;;;;;;;;;5064351;28;20024;-64
2023/04/12 09:30:11;;;;;;;867.00;767.72;;;;;;;;;;5060339;28;20028;-64
2023/04/12 09:32:36;;;;;;;843.53;756.50;;;;;;;;;;5052618;28;20489;-61
2023/04/12 09:35:04;;;;;;;925.03;729.90;;;;;;;;;;5054098;28;20044;-64
2023/04/12 09:37:29;;;;;;;835.22;748.75;;;;;;;;;;5058779;28;20544;-62
2023/04/12 09:40:13;;;;;;;732.58;666.33;;;;;;;;;;5057946;28;20020;-63
2023/04/12 09:42:52;;;;;;;627.28;577.17;;;;;;;;;;5048528;28;20342;-61
2023/04/12 09:45:21;;;;;;;700.60;631.57;;;;;;;;;;5046613;28;20049;-61
2023/04/12 09:47:46;;;;;;;;;;;;;;;;;;5057286;28;20027;-63
2023/04/12 09:50:18;;;;;;;760.70;576.57;;;;;;;;;;5066529;28;19908;-63
2023/04/12 09:52:44;;;;;;;392.30;366.38;;;;;;;;;;5069372;28;20511;-65
2023/04/12 09:55:09;;;;;;;741.38;673.60;;;;;;;;;;5070069;28;20020;-60
2023/04/12 09:57:41;;;;;;;745.95;667.08;;;;;;;;;;5068082;28;20027;-63
2023/04/12 10:00:17;;;;;;;731.15;660.30;;;;;;;;;;5069467;28;20021;-62
2023/04/12 10:02:46;;;;;;;773.55;690.80;;;;;;;;;;5070042;28;20017;-63
2023/04/12 10:05:12;;;;;;;700.85;634.40;;;;;;;;;;5069415;28;20033;-62
2023/04/12 10:07:41;;;;;;;650.95;592.28;;;;;;;;;;5069115;28;20027;-62
2023/04/12 10:10:07;;;;;;;770.05;696.28;;;;;;;;;;5068280;28;20492;-62
2023/04/12 10:12:33;;;;;;;658.67;598.65;;;;;;;;;;5068006;28;20521;-62
2023/04/12 10:14:59;;;;;;;7.88;3.10;;;;;;;;;;5069210;28;20043;-61
2023/04/12 10:17:25;;;;;;;3.15;1.80;;;;;;;;;;5067973;28;20032;-64
2023/04/12 10:19:51;;;;;;;6.22;2.38;;;;;;;;;;5068906;28;20650;-62
2023/04/12 10:22:16;;;;;;;5.15;2.28;;;;;;;;;;5067150;28;20024;-61
2023/04/12 10:24:42;;;;;;;3.25;1.77;;;;;;;;;;5068469;28;20166;-62
2023/04/12 10:27:07;;;;;;;5.55;2.17;;;;;;;;;;5062041;28;20033;-63
2023/04/12 10:29:35;;;;;;;6.40;2.00;;;;;;;;;;5062426;28;20755;-59
2023/04/12 10:32:20;;;;;;;9.43;2.30;;;;;;;;;;5054530;28;20480;-64
2023/04/12 10:34:53;;;;;;;7.53;2.17;;;;;;;;;;5055287;28;20446;-62
2023/04/12 10:37:19;;;;;;;9.23;2.92;;;;;;;;;;5064312;28;20064;-60
2023/04/12 10:39:51;;;;;;;7.63;2.30;;;;;;;;;;5059009;28;20051;-62
2023/04/12 10:42:23;;;;;;;5.03;1.95;;;;;;;;;;5051246;28;20056;-61
2023/04/12 10:44:52;;;;;;;5.85;2.22;;;;;;;;;;5053752;28;20606;-61
2023/04/12 10:47:17;;;;;;;;;;;;;;;;;;5065465;28;20074;-61
2023/04/12 10:50:01;;;;;;;7.67;2.43;;;;;;;;;;5057058;28;19909;-61
2023/04/12 10:52:26;;;;;;;9.35;2.75;;;;;;;;;;5051963;28;20052;-61
2023/04/12 10:54:51;;;;;;;4.68;1.98;;;;;;;;;;5057634;28;20251;-60
2023/04/12 10:57:35;;;;;;;7.40;2.80;;;;;;;;;;5061453;28;20024;-62
2023/04/12 11:00:01;;;;;;;5.55;2.17;;;;;;;;;;5065318;28;20249;-63
2023/04/12 11:02:26;;;;;;;8.93;2.53;;;;;;;;;;5056637;28;20066;-55
2023/04/12 11:05:08;;;;;;;3.92;1.98;;;;;;;;;;5063799;28;20035;-63
2023/04/12 11:07:41;;;;;;;7.43;2.58;;;;;;;;;;5066315;28;20056;-62
2023/04/12 11:10:13;;;;;;;7.38;2.80;;;;;;;;;;5050567;28;20029;-59
2023/04/12 11:12:39;;;;;;;5.32;1.83;;;;;;;;;;5047264;28;20535;-57
2023/04/12 11:15:05;;;;;;;7.32;2.28;;;;;;;;;;5049978;28;20029;-61
2023/04/12 11:17:31;;;;;;;5.80;1.98;;;;;;;;;;5065057;28;20020;-56
2023/04/12 11:19:57;;;;;;;5.10;1.98;;;;;;;;;;5068858;28;20021;-59
2023/04/12 11:22:24;;;;;;;13.90;3.67;;;;;;;;;;5064820;28;20099;-59
2023/04/12 11:24:53;;;;;;;6.95;2.30;;;;;;;;;;5061524;28;20032;-59
2023/04/12 11:27:20;;;;;;;8.75;2.90;;;;;;;;;;5063984;28;20043;-60
2023/04/12 11:29:47;;;;;;;4.70;1.83;;;;;;;;;;5068742;28;20042;-57
2023/04/12 11:32:13;;;;;;;5.60;1.75;;;;;;;;;;5062973;28;21132;-57
2023/04/12 11:34:39;;;;;;;10.15;2.35;;;;;;;;;;5061955;28;20166;-62
2023/04/12 11:37:08;;;;;;;6.60;2.55;;;;;;;;;;5057330;28;20075;-59
2023/04/12 11:39:34;;;;;;;9.82;2.53;;;;;;;;;;5056764;28;20029;-60
2023/04/12 11:42:02;;;;;;;5.32;1.52;;;;;;;;;;5067371;28;20093;-59
2023/04/12 11:44:27;;;;;;;5.47;2.08;;;;;;;;;;5067337;28;20079;-59
2023/04/12 11:46:53;;;;;;;2.45;1.20;;;;;;;;;;5062889;28;20048;-59
2023/04/12 11:49:19;;;;;;;7.35;1.60;;;;;;;;;;5064499;28;20059;-61
2023/04/12 11:51:44;;;;;;;1.92;1.25;;;;;;;;;;5064364;28;20074;-61
2023/04/12 11:54:10;;;;;;;7.13;1.98;;;;;;;;;;5066864;28;20806;-59
2023/04/12 11:56:36;;;;;;;1.95;1.25;;;;;;;;;;5060442;28;20032;-58
2023/04/12 11:59:01;;;;;;;3.42;1.42;;;;;;;;;;5060023;28;20021;-58
2023/04/12 12:01:28;;;;;;;7.32;1.38;;;;;;;;;;5057936;28;20174;-57
2023/04/12 12:03:53;;;;;;;8.38;1.75;;;;;;;;;;5060516;28;20066;-59
2023/04/12 12:07:26;;;;;;;586.40;425.08;;;;;;;;;;5094098;27;20133;-61
2023/04/12 12:09:51;;;;;;;843.40;597.40;;;;;;;;;;5096194;28;20043;-58
2023/04/12 12:12:17;;;;;;;834.92;567.97;;;;;;;;;;5100243;28;20063;-61
2023/04/12 12:14:43;;;;;;;844.05;582.60;;;;;;;;;;5092347;28;20486;-60
2023/04/12 12:17:12;;;;;;;804.30;486.02;;;;;;;;;;5086166;28;20032;-61
2023/04/12 12:19:39;;;;;;;60.40;18.80;;;;;;;;;;5090589;28;20031;-60
2023/04/12 12:22:17;;;;;;;797.58;491.80;;;;;;;;;;5104652;28;20024;-62
2023/04/12 12:24:56;;;;;;;781.60;468.17;;;;;;;;;;5103021;28;20035;-63
2023/04/12 12:27:23;;;;;;;832.22;525.95;;;;;;;;;;5104189;28;20046;-60
2023/04/12 12:29:49;;;;;;;814.35;491.50;;;;;;;;;;5104667;28;20077;-61
2023/04/12 12:32:16;;;;;;;206.68;194.90;;;;;;;;;;5104064;28;20024;-62
2023/04/12 12:34:48;;;;;;;2.33;1.20;;;;;;;;;;5104194;28;20540;-61
2023/04/12 12:37:16;;;;;;;6.28;2.30;;;;;;;;;;5104928;28;20035;-61
2023/04/12 12:39:58;;;;;;;5.40;1.20;;;;;;;;;;5125429;27;20019;-62
2023/04/12 12:42:25;;;;;;;3.20;1.38;;;;;;;;;;5130341;27;20027;-62
2023/04/12 12:44:50;;;;;;;13.52;2.72;;;;;;;;;;5119556;28;20026;-62
2023/04/12 12:47:15;;;;;;;2.27;1.30;;;;;;;;;;5108217;28;20027;-60
2023/04/12 12:49:41;;;;;;;3.40;1.33;;;;;;;;;;5107507;28;20776;-62
2023/04/12 12:52:06;;;;;;;3.60;1.60;;;;;;;;;;5107701;28;20455;-62
2023/04/12 12:54:31;;;;;;;29.63;2.92;;;;;;;;;;5109142;28;20284;-59
2023/04/12 12:56:57;;;;;;;34.30;4.32;;;;;;;;;;5105563;28;20574;-62
2023/04/12 12:59:22;;;;;;;17.92;1.85;;;;;;;;;;5107738;28;20061;-60
2023/04/12 13:01:48;;;;;;;2.40;1.45;;;;;;;;;;5103654;28;20505;-62
2023/04/12 13:04:13;;;;;;;6.77;2.03;;;;;;;;;;5103861;28;20034;-61
2023/04/12 13:06:38;;;;;;;5.00;1.98;;;;;;;;;;5102816;28;20315;-59
2023/04/12 13:09:04;;;;;;;10.55;4.00;;;;;;;;;;5102645;28;20081;-62
2023/04/12 13:11:29;;;;;;;7.30;1.88;;;;;;;;;;5103502;28;20023;-62
2023/04/12 13:13:55;;;;;;;5.28;1.33;;;;;;;;;;5103463;28;20430;-61
2023/04/12 13:16:20;;;;;;;4.13;1.43;;;;;;;;;;5102745;28;20111;-61
2023/04/12 13:18:45;;;;;;;3.35;1.73;;;;;;;;;;5089784;28;20249;-60
2023/04/12 13:21:11;;;;;;;5.55;1.73;;;;;;;;;;5088903;28;20477;-59
2023/04/12 13:23:36;;;;;;;3.08;1.30;;;;;;;;;;5088826;28;20063;-59
2023/04/12 13:26:01;;;;;;;8.53;1.40;;;;;;;;;;5089033;28;20270;-61
2023/04/12 13:28:27;;;;;;;4.95;1.50;;;;;;;;;;5088778;28;20954;-60
2023/04/12 13:30:52;;;;;;;3.00;1.30;;;;;;;;;;5089172;28;20053;-59
2023/04/12 13:33:17;;;;;;;3.45;1.48;;;;;;;;;;5089183;28;20455;-60
2023/04/12 13:35:44;;;;;;;4.10;1.60;;;;;;;;;;5088752;28;20498;-61
2023/04/12 13:38:09;;;;;;;7.15;1.63;;;;;;;;;;5088200;28;20035;-63
2023/04/12 13:40:35;;;;;;;4.78;1.83;;;;;;;;;;5069442;28;20036;-63
2023/04/12 13:43:00;;;;;;;9.45;2.35;;;;;;;;;;5089116;28;20016;-63
2023/04/12 13:45:26;;;;;;;2.88;1.77;;;;;;;;;;5088865;28;20052;-60
2023/04/12 13:47:51;;;;;;;12.32;2.85;;;;;;;;;;5088621;28;20357;-59
2023/04/12 13:50:16;;;;;;;2.85;1.48;;;;;;;;;;5088324;28;20035;-60
2023/04/12 13:52:42;;;;;;;2.90;1.42;;;;;;;;;;5087824;28;20028;-59
2023/04/12 13:55:07;;;;;;;5.10;2.10;;;;;;;;;;5088656;28;20016;-60
2023/04/12 13:57:33;;;;;;;5.15;1.45;;;;;;;;;;5088049;28;20672;-56
2023/04/12 13:59:58;;;;;;;4.03;1.60;;;;;;;;;;5088412;28;20101;-60
2023/04/12 14:02:24;;;;;;;3.83;1.67;;;;;;;;;;5087199;28;20705;-60
2023/04/12 14:04:51;;;;;;;5.22;1.80;;;;;;;;;;5087954;28;20462;-62
2023/04/12 14:07:16;;;;;;;6.03;2.03;;;;;;;;;;5087592;28;20305;-60
2023/04/12 14:09:42;;;;;;;6.55;1.80;;;;;;;;;;5106566;28;20265;-61
2023/04/12 14:12:07;;;;;;;5.63;1.80;;;;;;;;;;5103244;28;20016;-62
2023/04/12 14:14:32;;;;;;;10.85;2.70;;;;;;;;;;5088386;28;20604;-68
2023/04/12 14:17:00;;;;;;;6.80;2.03;;;;;;;;;;5088436;28;20027;-61
2023/04/12 14:19:26;;;;;;;2.65;1.40;;;;;;;;;;5086483;28;20252;-59